Time;durP1;ratioP1;P1;durP2;ratioP2;P2;SDS_P1;SDS_P2;PMS_P1;PMS_P2;Temp;Humidity;BMP_temperature;BMP_pressure;BME280_temperature;BME280_humidity;BME280_pressure;Samples;Min_cycle;Max_cycle;Signal;HPM_P1;HPM_P2
2022/10/27 00:00:47;;;;;;;8.87;8.17;;;;;;;12.92;100.00;-18128.44;5074760;28;20189;-58
2022/10/27 00:03:15;;;;;;;8.83;8.13;;;;;;;13.05;100.00;-18131.69;5074408;28;20188;-59
2022/10/27 00:05:42;;;;;;;8.20;7.80;;;;;;;13.17;100.00;-18134.47;5074697;28;20205;-59
2022/10/27 00:08:13;;;;;;;8.17;7.67;;;;;;;13.28;100.00;-18137.22;5074319;28;20192;-57
2022/10/27 00:10:42;;;;;;;8.00;7.50;;;;;;;13.47;100.00;-18141.56;5074254;28;20271;-58
2022/10/27 00:13:09;;;;;;;7.90;7.30;;;;;;;13.51;100.00;-18142.53;5074274;28;20227;-58
2022/10/27 00:15:36;;;;;;;8.13;7.63;;;;;;;13.63;100.00;-18145.41;5074028;28;20184;-58
2022/10/27 00:18:09;;;;;;;8.53;7.83;;;;;;;13.72;100.00;-18147.72;5074389;28;20185;-58
2022/10/27 00:20:37;;;;;;;8.73;8.13;;;;;;;13.75;100.00;-18148.19;5074473;28;20623;-58
2022/10/27 00:23:03;;;;;;;8.33;7.80;;;;;;;13.76;100.00;-18146.69;5073943;28;20185;-58
2022/10/27 00:25:31;;;;;;;9.10;8.20;;;;;;;13.76;100.00;-18146.69;5074209;28;20734;-58
2022/10/27 00:27:57;;;;;;;8.40;8.10;;;;;;;13.82;100.00;-18148.00;5073083;28;20189;-58
2022/10/27 00:30:24;;;;;;;9.47;8.87;;;;;;;13.93;100.00;-18152.63;5073860;28;20220;-58
2022/10/27 00:32:51;;;;;;;9.73;8.90;;;;;;;13.95;100.00;-18151.25;5073980;28;20196;-57
2022/10/27 00:35:20;;;;;;;8.67;7.97;;;;;;;14.04;100.00;-18153.41;5073702;28;20192;-57
2022/10/27 00:37:46;;;;;;;8.40;8.00;;;;;;;13.97;100.00;-18151.59;5074142;28;20206;-57
2022/10/27 00:40:13;;;;;;;8.97;8.17;;;;;;;14.15;100.00;-17836.47;5073623;28;20191;-58
2022/10/27 00:42:40;;;;;;;8.70;8.20;;;;;;;14.19;100.00;-16878.25;5073675;28;20189;-58
2022/10/27 00:45:08;;;;;;;8.27;7.87;;;;;;;14.29;100.00;-14321.13;5073990;28;20284;-57
2022/10/27 00:47:38;;;;;;;8.87;8.17;;;;;;;14.02;100.00;-11436.16;5073976;28;20224;-57
2022/10/27 00:50:09;;;;;;;12.43;8.30;;;;;;;14.02;100.00;-9834.88;5073774;28;20195;-58
2022/10/27 00:52:42;;;;;;;13.53;7.90;;;;;;;14.07;100.00;-9194.63;5073488;28;20188;-57
2022/10/27 00:55:14;;;;;;;11.00;8.13;;;;;;;14.01;100.00;-9834.78;5073757;28;20181;-57
2022/10/27 00:57:44;;;;;;;8.17;7.50;;;;;;;14.03;100.00;-10155.31;5073420;28;20192;-59
2022/10/27 01:00:12;;;;;;;10.33;8.00;;;;;;;14.05;100.00;-10796.06;5073620;28;20621;-57
2022/10/27 01:02:39;;;;;;;7.57;7.10;;;;;;;14.05;100.00;-10796.13;5073285;28;20181;-58
2022/10/27 01:05:12;;;;;;;8.63;7.83;;;;;;;14.10;100.00;-10796.72;5073154;28;20197;-57
2022/10/27 01:07:43;;;;;;;8.40;7.47;;;;;;;14.02;100.00;-12076.38;5073220;28;20189;-57
2022/10/27 01:10:10;;;;;;;7.93;7.33;;;;;;;14.01;100.00;-11756.13;5073484;28;20185;-58
2022/10/27 01:12:37;;;;;;;8.93;8.13;;;;;;;13.63;100.00;-12390.81;5073030;28;20203;-59
2022/10/27 01:15:05;;;;;;;8.20;7.43;;;;;;;13.28;100.00;-12705.41;5073021;28;20191;-58
2022/10/27 01:17:44;;;;;;;7.80;7.13;;;;;;;13.00;100.00;-14298.44;5073179;28;20184;-57
2022/10/27 01:20:45;;;;;;;8.67;7.87;;;;;;;13.33;100.00;-14304.25;5072821;28;20181;-58
2022/10/27 01:23:28;;;;;;;8.73;8.03;;;;;;;13.45;100.00;-13027.66;5072722;28;20246;-58
2022/10/27 01:26:43;;;;;;;8.53;7.90;;;;;;;13.51;100.00;-13987.72;5072580;28;20212;-57
2022/10/27 01:29:52;;;;;;;8.20;7.40;;;;;;;13.54;100.00;-12709.28;5011119;28;20207;-58
2022/10/27 01:32:30;;;;;;;7.50;6.90;;;;;;;13.50;100.00;-11749.25;4998067;28;20194;-57
2022/10/27 01:35:07;;;;;;;8.20;7.20;;;;;;;13.53;100.00;-11749.59;5011179;28;20198;-58
2022/10/27 01:37:40;;;;;;;7.47;6.97;;;;;;;13.43;100.00;-11108.50;5010991;28;20197;-58
2022/10/27 01:40:15;;;;;;;6.77;6.40;;;;;;;13.36;100.00;-10787.72;5010791;28;20209;-58
2022/10/27 01:42:48;;;;;;;8.37;7.77;;;;;;;13.20;100.00;-11745.22;5010924;28;20684;-58
2022/10/27 01:45:17;;;;;;;7.53;7.23;;;;;;;13.36;100.00;-11427.53;5010750;28;20207;-58
2022/10/27 01:47:46;;;;;;;9.60;7.13;;;;;;;12.80;100.00;-12378.75;5010784;28;20622;-57
2022/10/27 01:50:17;;;;;;;7.40;6.77;;;;;;;12.59;100.00;-14929.34;5010724;28;20277;-58
2022/10/27 01:52:47;;;;;;;8.20;6.50;;;;;;;12.64;100.00;-16206.53;5010707;28;20183;-59
2022/10/27 01:55:19;;;;;;;9.77;7.33;;;;;;;12.70;100.00;-16207.91;5010608;28;20234;-58
2022/10/27 01:58:25;;;;;;;8.10;7.37;;;;;;;12.52;100.00;-17798.28;5010606;28;20187;-58
2022/10/27 02:01:05;;;;;;;9.13;8.37;;;;;;;12.62;100.00;-18121.34;5025836;28;20284;-59
2022/10/27 02:03:41;;;;;;;10.03;8.40;;;;;;;12.60;100.00;-18120.84;5072362;28;20192;-58
2022/10/27 02:06:15;;;;;;;8.47;7.67;;;;;;;12.77;100.00;-18124.94;5072357;28;20533;-58
2022/10/27 02:08:49;;;;;;;10.13;8.47;;;;;;;12.74;100.00;-18122.34;5072064;28;20185;-57
2022/10/27 02:11:17;;;;;;;9.93;8.97;;;;;;;12.83;100.00;-17486.66;5072021;28;20185;-59
2022/10/27 02:13:46;;;;;;;9.73;9.13;;;;;;;12.55;100.00;-16523.69;5071967;28;20374;-58
2022/10/27 02:16:21;;;;;;;9.73;8.93;;;;;;;12.56;100.00;-16523.78;5071905;28;20185;-58
2022/10/27 02:18:55;;;;;;;8.30;7.80;;;;;;;12.65;100.00;-16206.84;5071838;28;20189;-58
2022/10/27 02:21:25;;;;;;;8.97;8.37;;;;;;;12.70;100.00;-15888.75;5071857;28;20189;-59
2022/10/27 02:23:53;;;;;;;8.97;8.17;;;;;;;12.46;100.00;-17478.13;5071989;28;20189;-59
2022/10/27 02:26:26;;;;;;;9.73;9.03;;;;;;;12.45;100.00;-18115.50;5072035;28;20694;-58
2022/10/27 02:28:58;;;;;;;9.73;9.03;;;;;;;12.62;100.00;-18119.47;5072132;28;20275;-58
2022/10/27 02:31:30;;;;;;;9.30;8.33;;;;;;;12.60;100.00;-18120.84;5072330;28;20236;-58
2022/10/27 02:34:00;;;;;;;10.50;9.50;;;;;;;12.72;100.00;-18121.88;5071681;28;20188;-57
2022/10/27 02:36:27;;;;;;;13.83;9.00;;;;;;;12.06;100.00;-18106.22;5072006;28;20211;-58
2022/10/27 02:38:54;;;;;;;14.30;10.60;;;;;;;12.01;100.00;-18106.88;5071578;28;20181;-59
2022/10/27 02:41:21;;;;;;;12.27;9.63;;;;;;;12.55;100.00;-18117.78;5071739;28;20196;-58
2022/10/27 02:43:48;;;;;;;10.50;9.70;;;;;;;12.51;100.00;-18116.94;5071840;28;20192;-58
2022/10/27 02:46:15;;;;;;;10.67;9.53;;;;;;;12.42;100.00;-17795.94;5071868;28;20228;-57
2022/10/27 02:48:42;;;;;;;11.13;10.03;;;;;;;12.34;100.00;-18112.97;5071917;28;20191;-58
2022/10/27 02:51:10;;;;;;;11.53;10.33;;;;;;;12.37;100.00;-18113.56;5071355;28;20211;-58
2022/10/27 02:53:37;;;;;;;11.60;10.10;;;;;;;12.47;100.00;-17797.13;5071402;28;20194;-58
2022/10/27 02:56:06;;;;;;;16.33;10.80;;;;;;;12.40;100.00;-17795.59;5071460;28;20184;-58
2022/10/27 02:58:33;;;;;;;13.23;10.77;;;;;;;12.43;100.00;-18114.88;5071572;28;20185;-57
2022/10/27 03:01:00;;;;;;;17.20;14.77;;;;;;;12.44;100.00;-18115.13;5054025;28;20743;-58
2022/10/27 03:03:27;;;;;;;16.90;13.27;;;;;;;12.55;100.00;-17480.19;5071755;28;20689;-58
2022/10/27 03:05:54;;;;;;;19.57;16.00;;;;;;;12.61;100.00;-17481.56;5071374;28;20213;-58
2022/10/27 03:08:22;;;;;;;28.23;20.27;;;;;;;12.59;100.00;-17162.38;5071496;28;20185;-57
2022/10/27 03:10:53;;;;;;;42.60;27.77;;;;;;;12.83;100.00;-17805.59;5071705;28;20181;-58
2022/10/27 03:13:20;;;;;;;29.13;23.53;;;;;;;12.77;100.00;-17804.31;5071494;28;20181;-58
2022/10/27 03:15:47;;;;;;;38.83;23.57;;;;;;;12.86;100.00;-17806.31;5071336;28;20187;-57
2022/10/27 03:18:14;;;;;;;44.33;23.17;;;;;;;12.83;100.00;-17805.59;5071229;28;20200;-58
2022/10/27 03:20:41;;;;;;;44.03;22.87;;;;;;;12.91;100.00;-17169.47;5071181;28;20185;-57
2022/10/27 03:23:08;;;;;;;43.60;24.13;;;;;;;12.66;100.00;-15568.88;5071197;28;20192;-59
2022/10/27 03:25:42;;;;;;;40.40;25.07;;;;;;;12.86;100.00;-14934.38;5071383;28;20533;-58
2022/10/27 03:28:09;;;;;;;41.90;26.53;;;;;;;12.86;100.00;-15253.59;5071093;28;20185;-58
2022/10/27 03:30:36;;;;;;;44.67;28.07;;;;;;;12.88;100.00;-16530.56;5070959;28;20324;-59
2022/10/27 03:33:03;;;;;;;47.20;30.90;;;;;;;12.72;100.00;-17165.31;5071698;28;20564;-58
2022/10/27 03:35:30;;;;;;;58.27;32.23;;;;;;;12.75;100.00;-17165.84;5071021;28;20192;-58
2022/10/27 03:37:58;;;;;;;54.47;32.43;;;;;;;12.74;100.00;-17484.69;5071068;28;20189;-57
2022/10/27 03:40:25;;;;;;;56.13;32.47;;;;;;;12.71;100.00;-17802.88;5071455;28;20185;-57
2022/10/27 03:42:57;;;;;;;56.20;33.97;;;;;;;12.63;100.00;-18119.72;5071083;28;20265;-58
2022/10/27 03:45:24;;;;;;;63.87;34.10;;;;;;;12.68;100.00;-18122.78;5071009;28;20193;-59
2022/10/27 03:47:59;;;;;;;56.30;33.23;;;;;;;12.67;100.00;-18122.53;5071432;28;20694;-59
2022/10/27 03:50:26;;;;;;;62.83;37.07;;;;;;;12.50;100.00;-18118.44;5071875;28;20185;-57
2022/10/27 03:52:53;;;;;;;58.97;37.63;;;;;;;12.67;100.00;-18122.53;5071006;28;20192;-58
2022/10/27 03:55:20;;;;;;;59.67;37.77;;;;;;;12.81;100.00;-18126.03;5071301;28;20683;-57
2022/10/27 03:57:47;;;;;;;59.73;35.90;;;;;;;12.88;100.00;-18127.59;5071342;28;20181;-57
2022/10/27 04:00:17;;;;;;;61.20;35.80;;;;;;;12.88;100.00;-18127.59;5071107;28;20652;-58
2022/10/27 04:02:44;;;;;;;56.10;33.43;;;;;;;12.92;100.00;-18128.56;5072946;28;20287;-57
2022/10/27 04:05:11;;;;;;;58.83;34.33;;;;;;;12.97;100.00;-18129.78;5074811;28;20211;-60
2022/10/27 04:07:38;;;;;;;58.03;33.37;;;;;;;12.87;100.00;-18127.34;5074180;28;20209;-57
2022/10/27 04:10:06;;;;;;;54.60;33.37;;;;;;;12.86;100.00;-18127.13;5074318;28;20187;-58
2022/10/27 04:12:32;;;;;;;57.23;32.40;;;;;;;12.80;100.00;-18125.66;5074300;28;20190;-58
2022/10/27 04:14:59;;;;;;;59.53;31.80;;;;;;;12.79;100.00;-18125.56;5074012;28;20191;-58
2022/10/27 04:17:28;;;;;;;54.73;31.77;;;;;;;12.76;100.00;-18122.84;5074169;28;20181;-59
2022/10/27 04:19:54;;;;;;;53.47;33.10;;;;;;;12.79;100.00;-18123.56;5074420;28;20639;-58
2022/10/27 04:22:21;;;;;;;58.80;34.43;;;;;;;12.90;100.00;-18126.09;5074402;28;20650;-58
2022/10/27 04:24:48;;;;;;;63.90;35.17;;;;;;;12.91;100.00;-18128.31;5073950;28;20189;-58
2022/10/27 04:27:15;;;;;;;59.97;35.80;;;;;;;12.90;100.00;-18127.97;5074139;28;20766;-58
2022/10/27 04:29:42;;;;;;;64.87;33.93;;;;;;;13.09;100.00;-18132.53;5073758;28;20231;-58
2022/10/27 04:32:09;;;;;;;50.53;31.70;;;;;;;13.20;100.00;-18135.19;5074258;28;20216;-58
2022/10/27 04:34:37;;;;;;;53.23;33.33;;;;;;;13.30;100.00;-18137.59;5074399;28;20620;-59
2022/10/27 04:37:04;;;;;;;76.07;35.87;;;;;;;13.11;100.00;-18131.28;5073898;28;20181;-58
2022/10/27 04:39:31;;;;;;;64.87;34.00;;;;;;;13.10;100.00;-18132.91;5073813;28;20199;-58
2022/10/27 04:41:58;;;;;;;50.07;32.27;;;;;;;13.07;100.00;-18132.16;5073779;28;20189;-59
2022/10/27 04:44:28;;;;;;;47.47;30.97;;;;;;;13.21;100.00;-18135.56;5073663;28;20192;-58
2022/10/27 04:46:54;;;;;;;50.63;31.20;;;;;;;13.34;100.00;-18138.56;5074139;28;20228;-57
2022/10/27 04:49:21;;;;;;;50.83;32.10;;;;;;;13.45;100.00;-18141.22;5074070;28;20560;-58
2022/10/27 04:51:50;;;;;;;54.00;32.00;;;;;;;13.26;100.00;-17496.56;5073910;28;20188;-58
2022/10/27 04:54:16;;;;;;;54.60;33.37;;;;;;;13.28;100.00;-18135.38;5073936;28;20233;-58
2022/10/27 04:56:43;;;;;;;62.63;34.53;;;;;;;13.36;100.00;-18138.91;5073955;28;20203;-59
2022/10/27 04:59:11;;;;;;;56.13;35.53;;;;;;;13.30;100.00;-18137.47;5073891;28;20541;-58
2022/10/27 05:01:39;;;;;;;60.03;35.17;;;;;;;13.52;100.00;-18142.78;5074332;28;20551;-57
2022/10/27 05:04:06;;;;;;;51.67;34.50;;;;;;;13.57;100.00;-18142.09;5073589;28;20191;-59
2022/10/27 05:06:33;;;;;;;66.83;34.57;;;;;;;13.63;100.00;-17824.22;5073292;28;20205;-58
2022/10/27 05:09:01;;;;;;;67.83;35.50;;;;;;;13.69;100.00;-15908.91;5073319;28;20189;-57
2022/10/27 05:11:28;;;;;;;63.90;33.73;;;;;;;13.79;100.00;-15271.56;5073435;28;20184;-58
2022/10/27 05:13:55;;;;;;;77.17;34.20;;;;;;;13.97;100.00;-15275.03;5072833;28;20188;-58
2022/10/27 05:16:22;;;;;;;64.07;32.10;;;;;;;14.18;100.00;-14959.13;5073389;28;20631;-58
2022/10/27 05:18:48;;;;;;;66.27;32.47;;;;;;;14.44;100.00;-13043.13;5073363;28;20196;-59
2022/10/27 05:21:15;;;;;;;86.23;34.77;;;;;;;14.55;100.00;-10481.53;5073010;28;20189;-57
2022/10/27 05:23:42;;;;;;;64.07;33.50;;;;;;;14.58;100.00;-7595.66;5072883;28;20189;-57
2022/10/27 05:26:10;;;;;;;65.03;31.73;;;;;;;14.97;100.00;-5992.72;5073006;28;20189;-57
2022/10/27 05:28:37;;;;;;;57.27;30.47;;;;;;;15.45;100.00;-2135.09;5073137;28;20630;-58
2022/10/27 05:31:04;;;;;;;52.83;31.40;;;;;;;16.01;100.00;9805.88;5072399;28;20714;-58
2022/10/27 05:33:31;;;;;;;57.17;30.13;;;;;;;16.53;100.00;25709.03;5072632;28;20185;-58
2022/10/27 05:35:58;;;;;;;49.70;26.90;;;;;;;16.99;100.00;46945.91;5072414;28;20199;-58
2022/10/27 05:38:25;;;;;;;51.70;25.33;;;;;;;17.38;100.00;83208.97;5072882;28;20639;-58
2022/10/27 05:40:55;;;;;;;57.80;26.70;;;;;;;17.76;100.00;115885.81;5072769;28;20551;-57
2022/10/27 05:43:46;;;;;;;43.07;25.67;;;;;;;18.01;100.00;150563.41;5072515;28;20203;-57
2022/10/27 05:46:13;;;;;;;36.80;22.67;;;;;;;17.88;100.00;150530.34;5072637;28;20196;-59
2022/10/27 05:48:39;;;;;;;28.73;21.23;;;;;;;17.71;100.00;150488.41;5072526;28;20239;-59
2022/10/27 05:51:07;;;;;;;38.40;20.87;;;;;;;17.67;100.00;150479.50;5072677;28;20189;-60
2022/10/27 05:53:33;;;;;;;33.47;22.57;;;;;;;17.62;100.00;148690.63;5072325;28;20188;-59
2022/10/27 05:56:03;;;;;;;37.57;21.57;;;;;;;17.56;100.00;133275.50;5072010;28;20193;-59
2022/10/27 05:58:31;;;;;;;32.53;23.40;;;;;;;17.29;100.00;102452.22;5072405;28;20254;-50
2022/10/27 06:00:59;;;;;;;35.43;22.93;;;;;;;17.22;100.00;91141.16;5072014;28;20188;-49
2022/10/27 06:03:26;;;;;;;31.43;22.27;;;;;;;17.16;100.00;99436.13;5071678;28;20242;-49
2022/10/27 06:05:55;;;;;;;32.80;22.27;;;;;;;17.14;100.00;103758.66;5072255;28;20184;-58
2022/10/27 06:08:23;;;;;;;33.93;22.20;;;;;;;16.92;100.00;93416.16;5071920;28;20262;-58
2022/10/27 06:10:49;;;;;;;33.43;21.83;;;;;;;16.89;100.00;87444.84;5072073;28;20537;-58
2022/10/27 06:13:17;;;;;;;33.77;22.47;;;;;;;16.94;100.00;84802.13;5072080;28;20712;-58
2022/10/27 06:15:46;;;;;;;39.57;21.43;;;;;;;16.92;100.00;77193.16;5071910;28;20374;-58
2022/10/27 06:18:13;;;;;;;49.87;24.37;;;;;;;16.81;100.00;74869.00;5071949;28;20181;-58
2022/10/27 06:20:40;;;;;;;34.87;22.03;;;;;;;16.97;100.00;71259.56;5071502;28;20242;-58
2022/10/27 06:23:08;;;;;;;40.70;23.63;;;;;;;17.00;100.00;74892.06;5071736;28;20647;-59
2022/10/27 06:25:35;;;;;;;55.50;28.50;;;;;;;17.32;100.00;98464.44;5070094;28;20211;-58
2022/10/27 06:28:02;;;;;;;59.57;29.33;;;;;;;17.46;100.00;117834.25;5086641;28;20257;-59
2022/10/27 06:30:29;;;;;;;63.60;31.73;;;;;;;17.49;100.00;121521.63;5091674;28;20334;-58
2022/10/27 06:32:57;;;;;;;54.80;29.97;;;;;;;17.54;100.00;129577.03;5091879;28;20188;-58
2022/10/27 06:35:24;;;;;;;56.50;28.90;;;;;;;17.32;100.00;112127.00;5092187;28;20729;-59
2022/10/27 06:37:52;;;;;;;59.63;27.50;;;;;;;17.44;100.00;109477.53;5086237;28;20181;-58
2022/10/27 06:40:20;;;;;;;52.17;28.77;;;;;;;17.58;100.00;107168.03;5091183;28;20194;-59
2022/10/27 06:42:49;;;;;;;52.73;28.90;;;;;;;17.55;100.00;117851.19;5071410;28;20188;-59
2022/10/27 06:45:17;;;;;;;72.63;44.00;;;;;;;17.64;100.00;126580.09;5071510;28;20220;-60
2022/10/27 06:47:45;;;;;;;64.10;38.77;;;;;;;17.47;100.00;113156.53;5071825;28;20219;-59
2022/10/27 06:50:26;;;;;;;59.70;37.67;;;;;;;17.29;100.00;99458.06;5071255;28;20265;-58
2022/10/27 06:52:52;;;;;;;58.93;37.53;;;;;;;17.17;100.00;87153.63;5071158;28;20275;-59
2022/10/27 06:55:20;;;;;;;77.47;43.37;;;;;;;17.11;100.00;76227.78;5071319;28;20263;-59
2022/10/27 06:57:47;;;;;;;75.40;48.03;;;;;;;17.01;100.00;75884.53;5071661;28;20260;-59
2022/10/27 07:00:15;;;;;;;76.90;50.47;;;;;;;16.97;100.00;81497.44;5071968;28;20616;-59
2022/10/27 07:02:42;;;;;;;78.07;49.73;;;;;;;17.08;100.00;96430.38;5071478;28;20190;-58
2022/10/27 07:05:15;;;;;;;87.77;49.57;;;;;;;17.03;100.00;104737.28;5071745;28;20563;-57
2022/10/27 07:07:48;;;;;;;91.93;50.53;;;;;;;17.00;100.00;108730.06;5071610;28;20581;-58
2022/10/27 07:10:15;;;;;;;94.70;47.33;;;;;;;17.02;100.00;117079.09;5071261;28;20658;-58
2022/10/27 07:12:51;;;;;;;89.10;48.17;;;;;;;17.21;100.00;124812.59;5071137;28;20189;-59
2022/10/27 07:15:18;;;;;;;86.27;46.67;;;;;;;17.10;100.00;120438.75;5071728;28;20180;-57
2022/10/27 07:17:45;;;;;;;81.93;45.80;;;;;;;17.15;100.00;117103.88;5053882;28;20647;-58
2022/10/27 07:20:12;;;;;;;90.63;46.87;;;;;;;17.23;100.00;117120.72;5071095;28;20556;-58
2022/10/27 07:22:41;;;;;;;68.17;43.40;;;;;;;17.45;100.00;130901.03;5073078;28;20291;-57
2022/10/27 07:25:09;;;;;;;82.20;43.63;;;;;;;17.66;100.00;137670.63;5070653;28;20197;-58
2022/10/27 07:27:36;;;;;;;73.73;43.70;;;;;;;17.68;100.00;150482.06;5071005;28;20708;-56
2022/10/27 07:30:04;;;;;;;72.57;39.93;;;;;;;18.14;100.00;150596.47;5070817;28;20580;-58
2022/10/27 07:32:39;;;;;;;76.00;41.33;;;;;;;18.31;100.00;150638.41;5070897;28;20669;-57
2022/10/27 07:35:08;;;;;;;62.90;37.70;;;;;;;19.22;100.00;150868.72;5070893;28;20188;-58
2022/10/27 07:37:35;;;;;;;52.97;37.67;;;;;;;20.39;100.00;151164.09;5074021;28;20219;-58
2022/10/27 07:40:02;;;;;;;53.57;35.67;;;;;;;21.30;100.00;151392.19;5074414;28;20189;-57
2022/10/27 07:42:30;;;;;;;50.47;35.25;;;;;;;22.68;100.00;151740.25;5074348;28;20647;-58
2022/10/27 07:44:57;;;;;;;51.67;33.97;;;;;;;23.82;100.00;152027.41;5074969;28;20635;-58
2022/10/27 07:47:24;;;;;;;48.80;32.08;;;;;;;24.94;100.00;152312.28;5074669;28;20234;-58
2022/10/27 07:49:51;;;;;;;57.63;29.00;;;;;;;25.47;100.00;152446.41;5074267;28;20191;-59
2022/10/27 07:52:18;;;;;;;47.80;28.65;;;;;;;26.01;100.00;152580.69;5075159;28;20189;-59
2022/10/27 07:54:48;;;;;;;49.35;29.55;;;;;;;26.26;99.47;152644.66;5081492;28;20192;-64
2022/10/27 07:57:15;;;;;;;47.08;28.70;;;;;;;26.45;98.28;152691.94;5078882;28;20718;-59
2022/10/27 07:59:44;;;;;;;90.45;36.70;;;;;;;27.14;94.76;152867.22;5075325;28;20181;-58
2022/10/27 08:02:11;;;;;;;60.90;39.10;;;;;;;27.92;85.00;153064.31;5074410;28;20250;-57
2022/10/27 08:04:42;;;;;;;76.93;40.47;;;;;;;27.45;88.95;152946.53;5074507;28;20287;-58
2022/10/27 08:07:09;;;;;;;57.35;33.67;;;;;;;26.62;92.48;152736.69;5074719;28;20193;-59
2022/10/27 08:09:37;;;;;;;67.93;32.75;;;;;;;27.43;90.81;152941.41;5073979;28;20228;-58
2022/10/27 08:12:05;;;;;;;53.00;28.92;;;;;;;27.79;89.72;153031.03;5073308;28;20508;-58
2022/10/27 08:14:32;;;;;;;54.92;25.77;;;;;;;28.79;80.89;153284.56;5074155;28;20242;-60
2022/10/27 08:17:00;;;;;;;42.80;21.92;;;;;;;29.48;74.63;153460.09;5074847;28;20181;-60
2022/10/27 08:19:27;;;;;;;51.60;29.83;;;;;;;28.88;72.03;153308.91;5074705;28;20531;-61
2022/10/27 08:21:54;;;;;;;31.42;18.77;;;;;;;28.44;74.43;153197.47;5074569;28;20185;-59
2022/10/27 08:24:21;;;;;;;31.05;16.17;;;;;;;28.12;80.68;153115.56;5056674;28;20196;-60
2022/10/27 08:26:48;;;;;;;23.83;16.15;;;;;;;28.30;79.63;153160.34;5074486;28;20195;-58
2022/10/27 08:29:15;;;;;;;31.42;17.38;;;;;;;27.68;80.98;153005.44;5073863;28;20296;-60
2022/10/27 08:31:41;;;;;;;43.17;17.13;;;;;;;27.12;86.30;152862.06;5073861;28;20224;-59
2022/10/27 08:34:10;;;;;;;44.53;17.52;;;;;;;27.08;87.31;152851.84;5076381;28;20200;-59
2022/10/27 08:36:38;;;;;;;42.22;18.50;;;;;;;27.20;89.12;152883.81;5073864;28;20191;-59
2022/10/27 08:39:06;;;;;;;33.72;18.33;;;;;;;27.59;83.56;152982.38;5074825;28;20590;-58
2022/10/27 08:41:39;;;;;;;44.17;17.63;;;;;;;28.60;77.94;153238.41;5074078;28;20189;-59
2022/10/27 08:44:17;;;;;;;43.85;17.20;;;;;;;29.62;72.39;153494.72;5073662;28;20187;-60
2022/10/27 08:46:52;;;;;;;17.38;12.80;;;;;;;29.80;60.65;153542.09;5074541;28;20199;-63
2022/10/27 08:49:39;;;;;;;15.60;12.35;;;;;;;30.69;58.40;153766.47;5073624;28;20204;-63
2022/10/27 08:52:15;;;;;;;21.63;12.98;;;;;;;31.05;55.50;153857.56;5084434;28;20191;-62
2022/10/27 08:54:47;;;;;;;20.08;12.95;;;;;;;31.16;56.25;153887.03;5094343;28;20179;-63
2022/10/27 08:57:20;;;;;;;20.58;13.70;;;;;;;31.41;55.65;153948.59;5094923;28;20188;-63
2022/10/27 08:59:47;;;;;;;18.02;14.70;;;;;;;31.52;54.72;153978.13;5094320;28;20249;-63
2022/10/27 09:02:35;;;;;;;19.80;14.13;;;;;;;30.78;57.30;153790.84;5076047;28;20184;-63
2022/10/27 09:05:17;;;;;;;19.52;13.38;;;;;;;31.20;56.29;153897.28;5094083;28;20621;-62
2022/10/27 09:07:55;;;;;;;17.02;12.60;;;;;;;30.12;59.40;153621.59;5093522;28;20204;-62
2022/10/27 09:10:39;;;;;;;11.38;10.13;;;;;;;29.55;63.92;153476.75;5093300;28;20186;-62
2022/10/27 09:13:12;;;;;;;11.35;10.52;;;;;;;30.02;60.55;153597.25;5093992;28;20547;-65
2022/10/27 09:15:44;;;;;;;11.43;9.68;;;;;;;30.16;60.08;153633.13;5094195;28;20180;-65
2022/10/27 09:18:23;;;;;;;13.10;8.45;;;;;;;30.33;60.60;153676.72;5093544;28;20228;-63
2022/10/27 09:20:55;;;;;;;10.57;9.55;;;;;;;30.61;59.95;153745.94;5093363;28;20183;-62
2022/10/27 09:23:27;;;;;;;10.57;9.40;;;;;;;30.38;60.62;153689.50;5093327;28;20207;-62
2022/10/27 09:25:57;;;;;;;10.38;9.43;;;;;;;29.83;65.82;153549.75;5093414;28;20184;-61
2022/10/27 09:28:31;;;;;;;11.75;10.48;;;;;;;29.73;66.95;153522.88;5093844;28;20738;-62
2022/10/27 09:30:59;;;;;;;11.18;9.65;;;;;;;29.37;70.64;153433.19;5092751;28;20373;-62
2022/10/27 09:33:31;;;;;;;9.75;8.90;;;;;;;28.66;78.33;153251.22;5073950;28;20197;-62
2022/10/27 09:36:00;;;;;;;9.20;8.40;;;;;;;28.26;81.45;153151.41;5073039;28;20555;-62
2022/10/27 09:38:27;;;;;;;9.63;8.75;;;;;;;27.25;90.34;152896.63;5072933;28;20188;-61
2022/10/27 09:40:55;;;;;;;11.18;8.73;;;;;;;27.62;90.62;152990.09;5073294;28;20242;-61
2022/10/27 09:43:23;;;;;;;9.02;7.97;;;;;;;28.07;87.84;153102.69;5073107;28;20188;-60
2022/10/27 09:45:58;;;;;;;8.30;7.63;;;;;;;27.82;92.49;153038.69;5073565;28;20243;-62
2022/10/27 09:48:26;;;;;;;8.43;7.32;;;;;;;27.50;94.58;152959.34;5073162;28;20208;-61
2022/10/27 09:50:58;;;;;;;9.27;7.97;;;;;;;27.94;91.52;153069.41;5072680;28;20204;-60
2022/10/27 09:53:46;;;;;;;7.93;7.43;;;;;;;28.36;89.55;153175.69;5078738;28;20265;-59
2022/10/27 09:56:17;;;;;;;13.85;7.50;;;;;;;27.81;94.33;153036.13;5076554;28;20197;-62
2022/10/27 09:59:00;;;;;;;8.88;7.80;;;;;;;27.73;97.33;153016.94;5072199;28;20181;-61
2022/10/27 10:01:28;;;;;;;12.18;7.47;;;;;;;27.86;97.75;153048.94;5071880;28;20238;-62
2022/10/27 10:04:03;;;;;;;8.52;7.75;;;;;;;27.91;96.45;153063.03;5071460;28;20189;-61
2022/10/27 10:06:35;;;;;;;11.18;8.27;;;;;;;27.73;99.25;153015.66;5063432;28;20195;-61
2022/10/27 10:09:27;;;;;;;8.55;7.95;;;;;;;27.66;100.00;153000.34;5052116;28;20214;-61
2022/10/27 10:12:17;;;;;;;9.60;7.78;;;;;;;27.10;100.00;152858.25;5057998;28;20291;-61
2022/10/27 10:14:44;;;;;;;8.70;8.00;;;;;;;26.73;100.00;152763.56;5053705;28;20225;-61
2022/10/27 10:17:21;;;;;;;11.18;7.97;;;;;;;26.87;100.00;152798.13;5052586;28;20213;-61
2022/10/27 10:19:51;;;;;;;9.73;9.02;;;;;;;27.34;100.00;152918.38;5082045;28;20268;-62
2022/10/27 10:22:25;;;;;;;11.88;8.68;;;;;;;27.94;100.00;153069.41;5053116;28;20209;-62
2022/10/27 10:24:54;;;;;;;10.63;9.63;;;;;;;27.44;100.00;152943.97;5052533;28;20498;-62
2022/10/27 10:27:29;;;;;;;10.70;9.80;;;;;;;27.81;100.00;153036.13;5063952;28;20610;-61
2022/10/27 10:29:58;;;;;;;8.90;8.18;;;;;;;27.00;100.00;152831.38;5051397;28;20274;-62
2022/10/27 10:32:28;;;;;;;10.43;8.43;;;;;;;26.69;100.00;152754.59;5068189;28;20200;-61
2022/10/27 10:34:55;;;;;;;8.90;8.00;;;;;;;27.07;100.00;152850.59;5071559;28;20181;-61
2022/10/27 10:37:33;;;;;;;7.85;7.40;;;;;;;27.21;100.00;152886.38;5071812;28;20251;-61
2022/10/27 10:40:26;;;;;;;7.88;7.38;;;;;;;26.41;100.00;152683.00;5072191;28;20180;-60
2022/10/27 10:43:13;;;;;;;7.43;7.13;;;;;;;26.02;100.00;152583.22;5071901;28;20185;-61
2022/10/27 10:45:41;;;;;;;10.07;9.18;;;;;;;25.78;100.00;152524.44;5067591;28;20197;-61
2022/10/27 10:48:30;;;;;;;8.95;8.05;;;;;;;26.37;100.00;152672.75;5057948;28;20290;-62
2022/10/27 10:50:58;;;;;;;8.18;7.47;;;;;;;26.98;100.00;152826.28;5051816;28;20178;-61
2022/10/27 10:53:29;;;;;;;11.05;9.95;;;;;;;27.30;100.00;152908.13;5052238;28;20593;-62
2022/10/27 10:56:01;;;;;;;9.48;8.50;;;;;;;27.05;100.00;152844.19;5051676;28;20278;-60
2022/10/27 10:58:32;;;;;;;10.35;9.32;;;;;;;26.49;100.00;152703.44;5060850;28;20181;-61
2022/10/27 11:01:01;;;;;;;9.55;8.70;;;;;;;25.92;100.00;152560.25;5072354;28;20185;-62
2022/10/27 11:03:31;;;;;;;8.98;8.32;;;;;;;25.80;100.00;152529.53;5072524;28;20188;-61
2022/10/27 11:06:01;;;;;;;8.25;7.68;;;;;;;25.55;100.00;152465.63;5071838;28;20606;-61
2022/10/27 11:08:38;;;;;;;9.65;7.85;;;;;;;25.01;100.00;152330.16;5071362;28;20291;-60
2022/10/27 11:11:13;;;;;;;8.35;7.50;;;;;;;23.83;100.00;152031.28;5072452;28;20184;-61
2022/10/27 11:13:47;;;;;;;8.90;8.50;;;;;;;23.00;100.00;151821.91;5075847;28;20635;-61
2022/10/27 11:16:14;;;;;;;10.60;9.30;;;;;;;22.29;100.00;151643.31;5076034;28;20181;-62
2022/10/27 11:18:56;;;;;;;9.63;8.82;;;;;;;21.68;100.00;151487.75;5075555;28;20181;-61
2022/10/27 11:21:37;;;;;;;9.10;8.40;;;;;;;21.56;100.00;151457.13;5075619;28;20275;-61
2022/10/27 11:24:15;;;;;;;8.65;7.88;;;;;;;20.97;100.00;151309.28;5069491;28;20203;-61